CheckWX is a tool to help pilots better visualize weather data.  It is not intended as a substitute for an official pre-flight weather briefing.

00:55:51 UTC

KQEN METAR
Daegwallyeong Rw
Daegwallyeong Rw, South Korea
Current

36 mins ago

KQEN 240020Z AUTO 25009G14KT 9999 CLR M03/M11 A3003 RMK A02 TSNO
Observed
Mar-24 @ 00:20 UTC
Wind
  • 250° at 9 KTS
  • Gusting to 14 KTS
Visibility
10,000+ meters
Flight Rules
VFR
Cloud Levels
  • Clear skies
Temperature
-3°C / 27°F
Dewpoint
-11°C / 12°F
Humidity
54%
Altimeter
30.03" Hg
Pressure
1016.92 hPa
Previous

46 mins ago

KQEN 240010Z AUTO 25008G14KT 9999 CLR M03/M10 A3003 RMK A02 TSNO
Observed
Mar-24 @ 00:10 UTC
Wind
  • 250° at 8 KTS
  • Gusting to 14 KTS
Visibility
10,000+ meters
Flight Rules
VFR
Cloud Levels
  • Clear skies
Temperature
-3°C / 27°F
Dewpoint
-10°C / 14°F
Humidity
59%
Altimeter
30.03" Hg
Pressure
1016.92 hPa
Previous

1 hour ago

KQEN 232350Z AUTO 24009G16KT 9999 CLR M04/M10 A3003 RMK A02 TSNO
Observed
Mar-23 @ 23:50 UTC
Wind
  • 240° at 9 KTS
  • Gusting to 16 KTS
Visibility
10,000+ meters
Flight Rules
VFR
Cloud Levels
  • Clear skies
Temperature
-4°C / 25°F
Dewpoint
-10°C / 14°F
Humidity
63%
Altimeter
30.03" Hg
Pressure
1016.92 hPa